Airfield :
LOGIN :

Register | Disclaimer

   EN    FR    IT 

 










Legend :    VFR   Marginal VFR   IFR   Intensive IFR   Very Intensive IFR
Visi :
Ceiling :
>= 8 km
>= 3000ft
5 to 8 km
1000 to 3000 ft
1500m to 5 km
500 to 1000 ft
800 to 1500m
200 to 500 ft
< 800m
< 200 ft
Symbols :   Thunderstorms  Fog  Heavy snow  Heavy precipitations  Wind > 20 kt
SIGMETs :     Misc.  Thunderstorms  Icing  Turbulence  Mountain Waves  Volcanic Ashes






- Airport Elevation : 352 ft
- IATA code : ARW


LRAR - Arad International

CURRENT METAR :
  • 290900Z 02013KT 350V050 9999 FEW020 15/08 Q1012

EXPIRED METARs :
  • 290830Z 03012KT 350V050 9999 SCT015 15/10 Q1012
  • 290800Z 01013KT 9999 SCT011 15/10 Q1012
  • 290730Z 02011KT 340V050 9999 BKN011 15/11 Q1011
  • 290700Z 02012KT 9999 BKN012 15/12 Q1012
  • 290630Z 01010KT 9999 SCT010 14/12 Q1012

TAF TAF LRAR
Valid from the 29 at 09:00 until the 29 at 18:00 UTC


290800Z 2909/2918 02010KT 9999 SCT015 SCT045
TEMPO 2909/2918 5000 -SHRA BKN015 SCT035CB
PROB30
TEMPO 2912/2917 3000 -TSRA BKN010 SCT030CB BKN040



MET'MAP, your aeronautical weather chart ! - Copyright ORBIFLY December 2007 - Disclaimer

ORBIFLY MET'MAP TEAM :

Programming & Development : Alexandra Zaïnal
Original concept : Baudouin d'Aumeries
Technical & hardware support : Manuel Goepfert
Assistance : Marc-Olivier Méhu

Contact : metmap@orbifly.com




SOURCES & CREDITS :

   NOAA